createdAt,value
2022-10-11T00:00:02.971Z,14.66
2022-10-11T00:01:03.047Z,14.57
2022-10-11T00:02:03.039Z,14.61
2022-10-11T00:03:03.073Z,14.59
2022-10-11T00:04:03.109Z,14.49
2022-10-11T00:05:03.140Z,14.44
2022-10-11T00:06:03.684Z,14.35
2022-10-11T00:07:03.208Z,14.44
2022-10-11T00:08:03.242Z,14.41
2022-10-11T00:09:03.276Z,14.44
2022-10-11T00:10:03.308Z,14.34
2022-10-11T00:11:03.342Z,14.39
2022-10-11T00:12:03.378Z,14.31
2022-10-11T00:13:03.412Z,14.36
2022-10-11T00:14:03.448Z,14.34
2022-10-11T00:15:03.477Z,14.29
2022-10-11T00:16:03.886Z,14.34
2022-10-11T00:17:03.545Z,14.30
2022-10-11T00:18:05.497Z,14.27
2022-10-11T00:19:03.613Z,14.29
2022-10-11T00:20:03.644Z,14.27
2022-10-11T00:21:03.683Z,14.23
2022-10-11T00:22:03.711Z,14.31
2022-10-11T00:23:03.748Z,14.21
2022-10-11T00:24:03.778Z,14.27
2022-10-11T00:25:03.814Z,14.27
2022-10-11T00:26:04.285Z,14.27
2022-10-11T00:27:03.916Z,14.19
2022-10-11T00:28:03.913Z,14.20
2022-10-11T00:29:03.947Z,14.24
2022-10-11T00:30:03.979Z,14.12
2022-10-11T00:31:04.390Z,14.12
2022-10-11T00:32:04.046Z,14.06
2022-10-11T00:33:04.083Z,14.08
2022-10-11T00:34:04.112Z,14.02
2022-10-11T00:35:04.155Z,13.96
2022-10-11T00:36:04.609Z,14.02
2022-10-11T00:37:04.218Z,13.94
2022-10-11T00:38:04.246Z,13.91
2022-10-11T00:39:04.280Z,13.96
2022-10-11T00:40:04.316Z,13.93
2022-10-11T00:41:04.358Z,14.05
2022-10-11T00:42:04.383Z,13.96
2022-10-11T00:43:04.421Z,13.87
2022-10-11T00:44:04.447Z,13.91
2022-10-11T00:45:04.481Z,13.96
2022-10-11T00:46:04.936Z,13.88
2022-10-11T00:47:04.552Z,13.88
2022-10-11T00:48:04.583Z,13.86
2022-10-11T00:49:04.617Z,13.84
2022-10-11T00:50:04.651Z,13.81
2022-10-11T00:51:05.052Z,13.80
2022-10-11T00:52:04.716Z,13.84
2022-10-11T00:53:04.747Z,13.84
2022-10-11T00:54:04.781Z,13.75
2022-10-11T00:55:04.813Z,13.76
2022-10-11T00:56:05.070Z,13.72
2022-10-11T00:57:04.884Z,13.75
2022-10-11T00:58:04.912Z,13.65
2022-10-11T00:59:04.948Z,13.65
2022-10-11T01:00:04.978Z,13.66
2022-10-11T01:01:05.073Z,13.65
2022-10-11T01:02:05.059Z,13.65
2022-10-11T01:03:05.078Z,13.66
2022-10-11T01:04:05.111Z,13.65
2022-10-11T01:05:27.694Z,13.66
2022-10-11T01:06:05.466Z,13.54
2022-10-11T01:07:05.212Z,13.55
2022-10-11T01:08:05.244Z,13.51
2022-10-11T01:09:05.278Z,13.50
2022-10-11T01:10:05.316Z,13.50
2022-10-11T01:11:05.346Z,13.48
2022-10-11T01:12:05.377Z,13.44
2022-10-11T01:13:05.409Z,13.38
2022-10-11T01:14:05.441Z,13.36
2022-10-11T01:15:05.476Z,13.43
2022-10-11T01:16:05.973Z,13.36
2022-10-11T01:17:05.546Z,13.43
2022-10-11T01:18:05.574Z,13.38
2022-10-11T01:19:05.608Z,13.38
2022-10-11T01:20:05.640Z,13.36
2022-10-11T01:21:05.674Z,13.27
2022-10-11T01:22:05.707Z,13.29
2022-10-11T01:23:05.740Z,13.25
2022-10-11T01:24:08.594Z,13.22
2022-10-11T01:25:05.806Z,13.27
2022-10-11T01:26:06.294Z,13.29
2022-10-11T01:27:05.892Z,13.19
2022-10-11T01:28:05.906Z,13.17
2022-10-11T01:29:05.940Z,13.10
2022-10-11T01:30:05.970Z,13.14
2022-10-11T01:31:06.005Z,13.07
2022-10-11T01:32:06.036Z,13.09
2022-10-11T01:33:06.070Z,13.13
2022-10-11T01:34:06.115Z,13.06
2022-10-11T01:35:06.159Z,13.01
2022-10-11T01:36:06.732Z,13.01
2022-10-11T01:37:06.201Z,12.98
2022-10-11T01:38:06.231Z,12.94
2022-10-11T01:39:06.269Z,13.01
2022-10-11T01:40:06.297Z,12.96
2022-10-11T01:41:06.336Z,12.92
2022-10-11T01:42:06.365Z,12.98
2022-10-11T01:43:06.396Z,12.89
2022-10-11T01:44:06.431Z,12.87
2022-10-11T01:45:06.462Z,12.91
2022-10-11T01:46:06.992Z,12.94
2022-10-11T01:47:06.518Z,12.81
2022-10-11T01:48:06.550Z,12.92
2022-10-11T01:49:06.580Z,12.92
2022-10-11T01:50:06.614Z,12.77
2022-10-11T01:51:06.647Z,12.84
2022-10-11T01:52:06.679Z,12.84
2022-10-11T01:53:06.712Z,12.89
2022-10-11T01:54:06.744Z,12.92
2022-10-11T01:55:10.489Z,12.85
2022-10-11T01:56:07.368Z,12.84
2022-10-11T01:57:06.842Z,12.73
2022-10-11T01:58:06.877Z,12.85
2022-10-11T01:59:06.910Z,12.84
2022-10-11T02:00:06.941Z,12.74
2022-10-11T02:01:07.025Z,12.79
2022-10-11T02:02:07.006Z,12.76
2022-10-11T02:03:07.039Z,12.74
2022-10-11T02:04:07.070Z,12.76
2022-10-11T02:05:07.102Z,12.80
2022-10-11T02:06:07.828Z,12.74
2022-10-11T02:07:07.167Z,12.80
2022-10-11T02:08:07.202Z,12.71
2022-10-11T02:09:08.368Z,12.70
2022-10-11T02:10:07.265Z,12.73
2022-10-11T02:11:07.296Z,12.70
2022-10-11T02:12:07.331Z,12.69
2022-10-11T02:13:07.363Z,12.63
2022-10-11T02:14:07.395Z,12.66
2022-10-11T02:15:07.425Z,12.63
2022-10-11T02:16:07.896Z,12.66
2022-10-11T02:17:07.503Z,12.67
2022-10-11T02:18:07.527Z,12.56
2022-10-11T02:19:07.560Z,12.61
2022-10-11T02:20:07.592Z,12.54
2022-10-11T02:21:07.623Z,12.44
2022-10-11T02:22:07.658Z,12.55
2022-10-11T02:23:07.686Z,12.56
2022-10-11T02:24:07.725Z,12.55
2022-10-11T02:25:07.753Z,12.43
2022-10-11T02:26:08.146Z,12.43
2022-10-11T02:27:07.817Z,12.41
2022-10-11T02:28:07.889Z,12.49
2022-10-11T02:29:07.888Z,12.34
2022-10-11T02:30:07.912Z,12.34
2022-10-11T02:31:07.946Z,12.36
2022-10-11T02:32:07.982Z,12.37
2022-10-11T02:33:08.011Z,12.44
2022-10-11T02:34:08.047Z,12.30
2022-10-11T02:35:08.076Z,12.34
2022-10-11T02:36:08.533Z,12.36
2022-10-11T02:37:08.140Z,12.41
2022-10-11T02:38:08.173Z,12.34
2022-10-11T02:39:08.206Z,12.38
2022-10-11T02:40:08.236Z,12.26
2022-10-11T02:41:08.270Z,12.30
2022-10-11T02:42:08.301Z,12.31
2022-10-11T02:43:08.333Z,12.37
2022-10-11T02:44:08.370Z,12.29
2022-10-11T02:45:08.397Z,12.21
2022-10-11T02:46:09.053Z,12.19
2022-10-11T02:47:08.462Z,12.23
2022-10-11T02:48:08.495Z,12.22
2022-10-11T02:49:08.532Z,12.22
2022-10-11T02:50:08.560Z,12.12
2022-10-11T02:51:08.591Z,12.16
2022-10-11T02:52:08.626Z,12.08
2022-10-11T02:53:08.656Z,12.04
2022-10-11T02:54:08.689Z,12.04
2022-10-11T02:55:08.719Z,12.01
2022-10-11T02:56:08.946Z,12.08
2022-10-11T02:57:08.785Z,12.11
2022-10-11T02:58:08.816Z,12.07
2022-10-11T02:59:08.849Z,12.12
2022-10-11T03:00:08.884Z,12.03
2022-10-11T03:01:09.001Z,12.01
2022-10-11T03:02:08.966Z,12.07
2022-10-11T03:03:08.988Z,11.98
2022-10-11T03:04:09.010Z,12.04
2022-10-11T03:05:09.042Z,12.05
2022-10-11T03:06:09.310Z,12.03
2022-10-11T03:07:09.130Z,12.04
2022-10-11T03:08:09.142Z,12.04
2022-10-11T03:09:09.174Z,12.08
2022-10-11T03:10:09.207Z,12.01
2022-10-11T03:11:09.235Z,12.05
2022-10-11T03:12:09.267Z,12.01
2022-10-11T03:13:09.297Z,11.98
2022-10-11T03:14:09.331Z,11.97
2022-10-11T03:15:09.361Z,12.00
2022-10-11T03:16:09.736Z,11.93
2022-10-11T03:17:34.567Z,11.97
2022-10-11T03:18:09.458Z,11.96
2022-10-11T03:19:09.492Z,11.94
2022-10-11T03:20:09.528Z,11.93
2022-10-11T03:21:09.554Z,11.90
2022-10-11T03:22:09.586Z,11.94
2022-10-11T03:23:09.618Z,11.85
2022-10-11T03:24:09.655Z,11.90
2022-10-11T03:25:09.683Z,11.93
2022-10-11T03:26:09.764Z,11.98
2022-10-11T03:27:09.751Z,11.88
2022-10-11T03:28:09.833Z,11.90
2022-10-11T03:29:09.810Z,11.94
2022-10-11T03:30:09.842Z,11.93
2022-10-11T03:31:09.873Z,11.84
2022-10-11T03:32:09.907Z,11.77
2022-10-11T03:33:09.942Z,11.82
2022-10-11T03:34:09.973Z,11.75
2022-10-11T03:35:10.002Z,11.75
2022-10-11T03:36:10.035Z,11.81
2022-10-11T03:37:10.068Z,11.79
2022-10-11T03:38:12.895Z,11.78
2022-10-11T03:39:10.129Z,11.79
2022-10-11T03:40:10.165Z,11.81
2022-10-11T03:41:10.196Z,11.77
2022-10-11T03:42:10.226Z,11.70
2022-10-11T03:43:10.260Z,11.67
2022-10-11T03:44:10.294Z,11.75
2022-10-11T03:45:10.321Z,11.77
2022-10-11T03:46:10.355Z,11.74
2022-10-11T03:47:10.385Z,11.67
2022-10-11T03:48:10.417Z,11.74
2022-10-11T03:49:10.451Z,11.77
2022-10-11T03:50:10.483Z,11.77
2022-10-11T03:51:10.515Z,11.64
2022-10-11T03:52:10.546Z,11.75
2022-10-11T03:53:10.578Z,11.66
2022-10-11T03:54:10.610Z,11.64
2022-10-11T03:55:10.641Z,11.72
2022-10-11T03:56:11.133Z,11.67
2022-10-11T03:57:10.706Z,11.66
2022-10-11T03:58:10.737Z,11.66
2022-10-11T03:59:10.768Z,11.64
2022-10-11T04:00:10.804Z,11.54
2022-10-11T04:01:10.833Z,11.64
2022-10-11T04:02:10.917Z,11.66
2022-10-11T04:03:10.896Z,11.51
2022-10-11T04:04:10.927Z,11.48
2022-10-11T04:05:10.963Z,11.64
2022-10-11T04:06:11.001Z,11.60
2022-10-11T04:07:11.024Z,11.59
2022-10-11T04:08:12.391Z,11.57
2022-10-11T04:09:11.090Z,11.57
2022-10-11T04:10:11.121Z,11.57
2022-10-11T04:11:11.149Z,11.54
2022-10-11T04:12:11.180Z,11.51
2022-10-11T04:13:11.214Z,11.51
2022-10-11T04:14:11.246Z,11.49
2022-10-11T04:15:11.277Z,11.57
2022-10-11T04:16:11.309Z,11.49
2022-10-11T04:17:11.343Z,11.44
2022-10-11T04:18:11.370Z,11.48
2022-10-11T04:19:11.411Z,11.49
2022-10-11T04:20:11.436Z,11.49
2022-10-11T04:21:11.469Z,11.49
2022-10-11T04:22:11.500Z,11.49
2022-10-11T04:23:11.533Z,11.57
2022-10-11T04:24:11.563Z,11.53
2022-10-11T04:25:11.599Z,11.53
2022-10-11T04:26:11.628Z,11.56
2022-10-11T04:27:11.658Z,11.48
2022-10-11T04:28:11.731Z,11.46
2022-10-11T04:29:11.723Z,11.46
2022-10-11T04:30:11.754Z,11.54
2022-10-11T04:31:11.784Z,11.41
2022-10-11T04:32:11.817Z,11.44
2022-10-11T04:33:11.850Z,11.44
2022-10-11T04:34:11.879Z,11.44
2022-10-11T04:35:11.920Z,11.48
2022-10-11T04:36:11.945Z,11.48
2022-10-11T04:37:11.977Z,11.48
2022-10-11T04:38:12.008Z,11.46
2022-10-11T04:39:12.040Z,11.45
2022-10-11T04:40:12.071Z,11.41
2022-10-11T04:41:12.103Z,11.41
2022-10-11T04:42:12.133Z,11.31
2022-10-11T04:43:12.166Z,11.39
2022-10-11T04:44:12.197Z,11.38
2022-10-11T04:45:12.229Z,11.35
2022-10-11T04:46:12.259Z,11.36
2022-10-11T04:47:12.294Z,11.39
2022-10-11T04:48:12.322Z,11.33
2022-10-11T04:49:12.359Z,11.48
2022-10-11T04:50:12.385Z,11.41
2022-10-11T04:51:12.433Z,11.44
2022-10-11T04:52:12.453Z,11.30
2022-10-11T04:53:12.488Z,11.38
2022-10-11T04:54:12.516Z,11.33
2022-10-11T04:55:12.546Z,11.33
2022-10-11T04:56:12.578Z,11.33
2022-10-11T04:57:12.608Z,11.35
2022-10-11T04:58:12.638Z,11.35
2022-10-11T04:59:12.676Z,11.33
2022-10-11T05:00:12.703Z,11.28
2022-10-11T05:01:12.734Z,11.33
2022-10-11T05:02:12.844Z,11.30
2022-10-11T05:03:12.799Z,11.38
2022-10-11T05:04:12.831Z,11.24
2022-10-11T05:05:12.862Z,11.27
2022-10-11T05:06:13.450Z,11.26
2022-10-11T05:07:12.925Z,11.33
2022-10-11T05:08:12.957Z,11.23
2022-10-11T05:09:12.988Z,11.30
2022-10-11T05:10:13.017Z,11.30
2022-10-11T05:11:15.625Z,11.27
2022-10-11T05:12:13.081Z,11.23
2022-10-11T05:13:13.114Z,11.20
2022-10-11T05:14:13.144Z,11.24
2022-10-11T05:15:13.176Z,11.23
2022-10-11T05:16:13.603Z,11.13
2022-10-11T05:17:13.243Z,11.19
2022-10-11T05:18:13.270Z,11.26
2022-10-11T05:19:13.303Z,11.23
2022-10-11T05:20:13.334Z,11.23
2022-10-11T05:21:13.367Z,11.11
2022-10-11T05:22:13.398Z,11.16
2022-10-11T05:23:13.431Z,11.13
2022-10-11T05:24:13.460Z,11.20
2022-10-11T05:25:13.493Z,11.21
2022-10-11T05:26:13.525Z,11.20
2022-10-11T05:27:13.556Z,11.20
2022-10-11T05:28:13.646Z,11.12
2022-10-11T05:29:13.620Z,11.16
2022-10-11T05:30:13.649Z,11.17
2022-10-11T05:31:13.682Z,11.16
2022-10-11T05:32:13.713Z,11.17
2022-10-11T05:33:13.745Z,11.13
2022-10-11T05:34:13.777Z,11.19
2022-10-11T05:35:13.807Z,11.20
2022-10-11T05:36:13.839Z,11.20
2022-10-11T05:37:13.874Z,11.17
2022-10-11T05:38:13.902Z,11.23
2022-10-11T05:39:13.935Z,11.21
2022-10-11T05:40:13.966Z,11.20
2022-10-11T05:41:13.999Z,11.21
2022-10-11T05:42:14.032Z,11.16
2022-10-11T05:43:14.060Z,11.20
2022-10-11T05:44:14.090Z,11.21
2022-10-11T05:45:14.123Z,11.17
2022-10-11T05:46:14.153Z,11.20
2022-10-11T05:47:14.184Z,11.17
2022-10-11T05:48:14.218Z,11.11
2022-10-11T05:49:14.250Z,11.16
2022-10-11T05:50:14.279Z,11.13
2022-10-11T05:51:14.317Z,11.20
2022-10-11T05:52:14.348Z,11.17
2022-10-11T05:53:14.377Z,11.17
2022-10-11T05:54:14.405Z,11.20
2022-10-11T05:55:14.442Z,11.21
2022-10-11T05:56:14.468Z,11.20
2022-10-11T05:57:14.504Z,11.17
2022-10-11T05:58:14.532Z,11.24
2022-10-11T05:59:14.563Z,11.24
2022-10-11T06:00:14.597Z,11.17
2022-10-11T06:01:14.694Z,11.21
2022-10-11T06:02:14.657Z,11.27
2022-10-11T06:03:14.691Z,11.27
2022-10-11T06:04:14.721Z,11.28
2022-10-11T06:05:14.754Z,11.27
2022-10-11T06:06:14.787Z,11.26
2022-10-11T06:07:14.817Z,11.27
2022-10-11T06:08:14.848Z,11.27
2022-10-11T06:09:14.879Z,11.31
2022-10-11T06:10:14.912Z,11.33
2022-10-11T06:11:14.946Z,11.27
2022-10-11T06:12:14.973Z,11.27
2022-10-11T06:13:15.006Z,11.27
2022-10-11T06:14:15.038Z,11.36
2022-10-11T06:15:15.081Z,11.31
2022-10-11T06:16:15.099Z,11.27
2022-10-11T06:17:15.133Z,11.35
2022-10-11T06:18:15.169Z,11.24
2022-10-11T06:19:15.195Z,11.31
2022-10-11T06:20:15.224Z,11.27
2022-10-11T06:21:15.259Z,11.31
2022-10-11T06:22:15.288Z,11.31
2022-10-11T06:23:15.320Z,11.27
2022-10-11T06:24:15.351Z,11.35
2022-10-11T06:25:15.391Z,11.31
2022-10-11T06:26:15.414Z,11.24
2022-10-11T06:27:15.446Z,11.27
2022-10-11T06:28:15.586Z,11.26
2022-10-11T06:29:15.512Z,11.30
2022-10-11T06:30:15.545Z,11.24
2022-10-11T06:31:15.573Z,11.26
2022-10-11T06:32:15.611Z,11.30
2022-10-11T06:33:15.637Z,11.27
2022-10-11T06:34:15.672Z,11.23
2022-10-11T06:35:15.700Z,11.31
2022-10-11T06:36:15.730Z,11.33
2022-10-11T06:37:15.762Z,11.24
2022-10-11T06:38:15.795Z,11.30
2022-10-11T06:39:15.825Z,11.39
2022-10-11T06:40:15.857Z,11.23
2022-10-11T06:41:15.889Z,11.24
2022-10-11T06:42:15.920Z,11.27
2022-10-11T06:43:15.953Z,11.33
2022-10-11T06:44:15.982Z,11.31
2022-10-11T06:45:16.020Z,11.33
2022-10-11T06:46:16.046Z,11.30
2022-10-11T06:47:16.076Z,11.33
2022-10-11T06:48:16.107Z,11.35
2022-10-11T06:49:20.717Z,11.31
2022-10-11T06:50:16.170Z,11.36
2022-10-11T06:51:16.204Z,11.38
2022-10-11T06:52:16.235Z,11.35
2022-10-11T06:53:16.267Z,11.36
2022-10-11T06:54:16.297Z,11.35
2022-10-11T06:55:16.330Z,11.33
2022-10-11T06:56:16.363Z,11.36
2022-10-11T06:57:16.394Z,11.39
2022-10-11T06:58:16.424Z,11.41
2022-10-11T06:59:16.455Z,11.42
2022-10-11T07:00:16.487Z,11.44
2022-10-11T07:01:16.606Z,11.41
2022-10-11T07:02:16.551Z,11.42
2022-10-11T07:03:16.582Z,11.39
2022-10-11T07:04:16.613Z,11.45
2022-10-11T07:05:16.649Z,11.42
2022-10-11T07:06:16.676Z,11.44
2022-10-11T07:07:16.710Z,11.46
2022-10-11T07:08:16.744Z,11.51
2022-10-11T07:09:16.773Z,11.51
2022-10-11T07:10:16.804Z,11.48
2022-10-11T07:11:16.838Z,11.49
2022-10-11T07:12:16.881Z,11.49
2022-10-11T07:13:17.425Z,11.54
2022-10-11T07:14:16.931Z,11.60
2022-10-11T07:15:16.963Z,11.62
2022-10-11T07:16:16.991Z,11.51
2022-10-11T07:17:17.025Z,11.54
2022-10-11T07:18:17.056Z,11.59
2022-10-11T07:19:17.093Z,11.59
2022-10-11T07:20:17.119Z,11.53
2022-10-11T07:21:17.152Z,11.56
2022-10-11T07:22:17.182Z,11.57
2022-10-11T07:23:17.215Z,11.48
2022-10-11T07:24:17.247Z,11.67
2022-10-11T07:25:17.277Z,11.62
2022-10-11T07:26:17.351Z,11.67
2022-10-11T07:27:17.341Z,11.69
2022-10-11T07:28:17.397Z,11.69
2022-10-11T07:29:17.406Z,11.72
2022-10-11T07:30:17.437Z,11.70
2022-10-11T07:31:17.471Z,11.75
2022-10-11T07:32:17.499Z,11.67
2022-10-11T07:33:17.536Z,11.72
2022-10-11T07:34:17.562Z,11.69
2022-10-11T07:35:17.595Z,11.84
2022-10-11T07:36:17.627Z,11.81
2022-10-11T07:37:17.659Z,11.78
2022-10-11T07:38:17.693Z,11.78
2022-10-11T07:39:17.721Z,11.87
2022-10-11T07:40:17.754Z,11.94
2022-10-11T07:41:17.786Z,11.87
2022-10-11T07:42:17.825Z,11.94
2022-10-11T07:43:17.850Z,11.85
2022-10-11T07:44:17.880Z,11.97
2022-10-11T07:45:17.914Z,11.93
2022-10-11T07:46:17.967Z,11.93
2022-10-11T07:47:17.976Z,12.00
2022-10-11T07:48:18.011Z,12.07
2022-10-11T07:49:18.051Z,12.12
2022-10-11T07:50:18.074Z,12.11
2022-10-11T07:51:18.107Z,12.15
2022-10-11T07:52:18.139Z,12.15
2022-10-11T07:53:18.170Z,12.12
2022-10-11T07:54:18.200Z,12.16
2022-10-11T07:55:18.231Z,12.25
2022-10-11T07:56:18.262Z,12.22
2022-10-11T07:57:18.298Z,12.21
2022-10-11T07:58:18.331Z,12.23
2022-10-11T07:59:18.360Z,12.34
2022-10-11T08:00:18.392Z,12.40
2022-10-11T08:01:18.498Z,12.31
2022-10-11T08:02:18.455Z,12.37
2022-10-11T08:03:18.487Z,12.34
2022-10-11T08:04:18.528Z,12.46
2022-10-11T08:05:18.554Z,12.48
2022-10-11T08:06:18.586Z,12.55
2022-10-11T08:07:18.619Z,12.61
2022-10-11T08:08:18.671Z,12.55
2022-10-11T08:09:18.691Z,12.66
2022-10-11T08:10:18.713Z,12.69
2022-10-11T08:11:18.752Z,12.74
2022-10-11T08:12:18.781Z,12.76
2022-10-11T08:13:18.809Z,12.85
2022-10-11T08:14:18.844Z,12.88
2022-10-11T08:15:18.874Z,12.77
2022-10-11T08:16:18.907Z,12.89
2022-10-11T08:17:18.939Z,12.89
2022-10-11T08:18:18.971Z,12.94
2022-10-11T08:19:19.003Z,12.98
2022-10-11T08:20:19.036Z,12.99
2022-10-11T08:21:19.067Z,13.09
2022-10-11T08:22:19.104Z,13.09
2022-10-11T08:23:19.162Z,13.09
2022-10-11T08:24:19.167Z,13.03
2022-10-11T08:25:19.208Z,13.21
2022-10-11T08:26:19.233Z,13.22
2022-10-11T08:27:19.271Z,13.35
2022-10-11T08:28:19.381Z,13.29
2022-10-11T08:29:19.326Z,13.38
2022-10-11T08:30:19.361Z,13.53
2022-10-11T08:31:19.392Z,13.53
2022-10-11T08:32:19.426Z,13.62
2022-10-11T08:33:19.465Z,13.69
2022-10-11T08:34:19.490Z,13.69
2022-10-11T08:35:19.534Z,13.84
2022-10-11T08:36:19.564Z,13.91
2022-10-11T08:37:19.589Z,13.93
2022-10-11T08:38:19.621Z,14.02
2022-10-11T08:39:19.654Z,14.09
2022-10-11T08:40:19.687Z,14.26
2022-10-11T08:41:19.737Z,14.52
2022-10-11T08:42:19.758Z,14.82
2022-10-11T08:43:19.785Z,15.18
2022-10-11T08:44:19.820Z,15.76
2022-10-11T08:45:19.851Z,16.48
2022-10-11T08:46:19.886Z,16.87
2022-10-11T08:47:19.917Z,17.20
2022-10-11T08:48:19.951Z,17.58
2022-10-11T08:49:19.983Z,18.13
2022-10-11T08:50:20.019Z,18.57
2022-10-11T08:51:20.049Z,18.86
2022-10-11T08:52:20.086Z,19.28
2022-10-11T08:53:20.116Z,19.50
2022-10-11T08:54:20.148Z,19.72
2022-10-11T08:55:20.182Z,19.94
2022-10-11T08:56:20.216Z,20.19
2022-10-11T08:57:20.250Z,20.42
2022-10-11T08:58:20.284Z,20.42
2022-10-11T08:59:20.316Z,20.61
2022-10-11T09:00:20.442Z,20.66
2022-10-11T09:01:20.450Z,20.48
2022-10-11T09:02:20.425Z,20.22
2022-10-11T09:03:20.465Z,20.02
2022-10-11T09:04:20.489Z,19.82
2022-10-11T09:05:20.535Z,19.65
2022-10-11T09:06:20.560Z,19.43
2022-10-11T09:07:20.592Z,19.21
2022-10-11T09:08:20.628Z,19.10
2022-10-11T09:09:20.666Z,18.89
2022-10-11T09:10:20.774Z,18.79
2022-10-11T09:11:20.733Z,18.69
2022-10-11T09:12:20.768Z,18.60
2022-10-11T09:13:20.803Z,18.49
2022-10-11T09:14:20.845Z,18.50
2022-10-11T09:15:20.876Z,18.44
2022-10-11T09:16:20.921Z,18.35
2022-10-11T09:17:20.949Z,18.38
2022-10-11T09:18:20.987Z,18.39
2022-10-11T09:19:21.019Z,18.28
2022-10-11T09:20:21.056Z,18.31
2022-10-11T09:21:21.093Z,18.32
2022-10-11T09:22:21.131Z,18.42
2022-10-11T09:23:21.163Z,18.39
2022-10-11T09:24:21.202Z,18.39
2022-10-11T09:25:21.243Z,18.41
2022-10-11T09:26:21.273Z,18.44
2022-10-11T09:27:29.071Z,18.49
2022-10-11T09:28:21.382Z,18.49
2022-10-11T09:29:21.386Z,18.42
2022-10-11T09:30:21.420Z,18.49
2022-10-11T09:31:21.455Z,18.51
2022-10-11T09:32:21.494Z,18.53
2022-10-11T09:33:21.530Z,18.59
2022-10-11T09:34:21.568Z,18.59
2022-10-11T09:35:21.603Z,18.64
2022-10-11T09:36:21.650Z,18.66
2022-10-11T09:37:21.677Z,18.68
2022-10-11T09:38:21.713Z,18.71
2022-10-11T09:39:28.948Z,18.87
2022-10-11T09:41:25.807Z,18.99
2022-10-11T09:42:25.835Z,19.06
2022-10-11T09:44:29.895Z,18.97
2022-10-11T09:45:29.924Z,18.97
2022-10-11T09:47:33.982Z,19.05
2022-10-11T09:48:34.013Z,19.23
2022-10-11T09:50:38.126Z,19.70
2022-10-11T09:51:38.099Z,20.15
2022-10-11T09:53:42.156Z,21.75
2022-10-11T09:54:42.187Z,22.41
2022-10-11T09:56:35.160Z,24.21
2022-10-11T09:57:35.191Z,25.20
2022-10-11T09:59:39.276Z,27.24
2022-10-11T10:00:39.282Z,27.40
2022-10-11T10:02:43.364Z,28.36
2022-10-11T10:03:43.366Z,28.94
2022-10-11T10:05:47.456Z,29.21
2022-10-11T10:06:47.455Z,29.71
2022-10-11T10:08:51.513Z,30.22
2022-10-11T10:09:51.547Z,30.30
2022-10-11T10:11:55.605Z,29.81
2022-10-11T10:12:55.635Z,29.67
2022-10-11T10:14:59.694Z,29.52
2022-10-11T10:15:59.725Z,29.47
2022-10-11T10:18:03.784Z,29.74
2022-10-11T10:19:03.816Z,29.81
2022-10-11T10:21:07.887Z,30.25
2022-10-11T10:22:07.915Z,30.06
2022-10-11T10:24:11.981Z,30.00
2022-10-11T10:25:12.005Z,30.03
2022-10-11T10:27:16.180Z,29.92
2022-10-11T10:28:16.224Z,29.97
2022-10-11T10:30:20.179Z,29.89
2022-10-11T10:31:20.219Z,29.86
2022-10-11T10:33:24.293Z,29.62
2022-10-11T10:34:24.331Z,29.51
2022-10-11T10:36:17.752Z,29.07
2022-10-11T10:37:17.576Z,29.08
2022-10-11T10:39:21.469Z,28.72
2022-10-11T10:40:21.480Z,28.48
2022-10-11T10:42:25.573Z,29.10
2022-10-11T10:43:25.615Z,29.45
2022-10-11T10:45:29.749Z,30.11
2022-10-11T10:46:29.787Z,30.40
2022-10-11T10:48:53.754Z,30.61
2022-10-11T10:49:53.147Z,30.26
2022-10-11T10:51:38.015Z,29.63
2022-10-11T10:52:38.015Z,29.88
2022-10-11T10:54:42.091Z,30.60
2022-10-11T10:55:42.128Z,30.97
2022-10-11T10:57:46.234Z,31.18
2022-10-11T10:58:46.244Z,31.23
2022-10-11T11:00:50.317Z,30.96
2022-10-11T11:01:50.410Z,30.61
2022-10-11T11:03:54.436Z,29.32
2022-10-11T11:04:54.524Z,28.76
2022-10-11T11:06:58.557Z,28.32
2022-10-11T11:07:58.590Z,28.80
2022-10-11T11:10:02.665Z,30.03
2022-10-11T11:11:02.700Z,30.49
2022-10-11T11:13:06.822Z,30.86
2022-10-11T11:14:06.812Z,30.93
2022-10-11T11:15:59.806Z,30.26
2022-10-11T11:16:59.840Z,29.64
2022-10-11T11:19:04.334Z,28.32
2022-10-11T11:20:03.948Z,27.76
2022-10-11T11:22:08.018Z,26.57
2022-10-11T11:23:08.059Z,25.90
2022-10-11T11:25:12.128Z,25.11
2022-10-11T11:26:12.164Z,24.70
2022-10-11T11:28:05.148Z,24.18
2022-10-11T11:29:05.186Z,24.06
2022-10-11T11:31:09.290Z,23.77
2022-10-11T11:32:09.319Z,23.69
2022-10-11T11:34:13.385Z,24.53
2022-10-11T11:35:13.423Z,25.19
2022-10-11T11:37:17.492Z,26.19
2022-10-11T11:38:17.526Z,26.36
2022-10-11T11:40:21.591Z,26.56
2022-10-11T11:41:21.630Z,26.51
2022-10-11T11:43:25.704Z,26.12
2022-10-11T11:44:27.626Z,25.94
2022-10-11T11:46:18.727Z,25.35
2022-10-11T11:47:18.789Z,24.98
2022-10-11T11:49:22.837Z,24.30
2022-10-11T11:50:23.019Z,23.82
2022-10-11T11:52:26.972Z,23.35
2022-10-11T11:53:26.978Z,23.31
2022-10-11T11:55:31.079Z,24.02
2022-10-11T11:56:31.089Z,24.59
2022-10-11T11:58:35.187Z,25.49
2022-10-11T11:59:35.192Z,25.48
2022-10-11T12:01:39.308Z,25.09
2022-10-11T12:02:39.294Z,24.75
2022-10-11T12:04:43.365Z,24.12
2022-10-11T12:05:43.399Z,23.77
2022-10-11T12:07:47.700Z,23.07
2022-10-11T12:08:47.514Z,22.84
2022-10-11T12:10:51.588Z,22.42
2022-10-11T12:11:51.633Z,22.09
2022-10-11T12:13:55.691Z,21.90
2022-10-11T12:14:55.732Z,21.64
2022-10-11T12:16:59.814Z,21.34
2022-10-11T12:17:59.823Z,21.13
2022-10-11T12:20:03.889Z,20.94
2022-10-11T12:21:04.322Z,20.96
2022-10-11T12:23:08.016Z,20.75
2022-10-11T12:24:08.020Z,20.60
2022-10-11T12:26:01.000Z,20.54
2022-10-11T12:27:01.031Z,20.42
2022-10-11T12:29:05.121Z,20.31
2022-10-11T12:30:05.125Z,20.27
2022-10-11T12:32:09.425Z,20.16
2022-10-11T12:33:09.426Z,20.34
2022-10-11T12:35:13.514Z,20.90
2022-10-11T12:36:13.889Z,21.33
2022-10-11T12:38:17.584Z,22.69
2022-10-11T12:39:17.612Z,23.67
2022-10-11T12:41:21.670Z,25.14
2022-10-11T12:42:21.702Z,25.81
2022-10-11T12:44:25.763Z,27.05
2022-10-11T12:45:25.795Z,27.35
2022-10-11T12:47:29.853Z,27.68
2022-10-11T12:48:34.887Z,27.72
2022-10-11T12:50:33.953Z,27.38
2022-10-11T12:51:33.984Z,27.34
2022-10-11T12:53:38.042Z,26.81
2022-10-11T12:54:38.084Z,26.53
2022-10-11T12:56:31.093Z,26.17
2022-10-11T12:57:31.097Z,26.11
2022-10-11T12:59:35.157Z,25.93
2022-10-11T13:00:35.194Z,25.66
2022-10-11T13:02:39.278Z,25.22
2022-10-11T13:03:39.282Z,24.98
2022-10-11T13:05:45.481Z,24.70
2022-10-11T13:06:43.374Z,24.66
2022-10-11T13:08:47.435Z,24.26
2022-10-11T13:09:49.216Z,24.15
2022-10-11T13:11:51.526Z,23.86
2022-10-11T13:12:51.566Z,23.74
2022-10-11T13:14:55.616Z,23.38
2022-10-11T13:15:55.650Z,23.25
2022-10-11T13:17:59.710Z,23.16
2022-10-11T13:18:59.742Z,23.19
2022-10-11T13:21:04.180Z,23.18
2022-10-11T13:22:03.833Z,23.11
2022-10-11T13:24:07.893Z,23.89
2022-10-11T13:25:07.924Z,24.04
2022-10-11T13:27:11.984Z,24.59
2022-10-11T13:28:12.041Z,24.83
2022-10-11T13:30:16.073Z,25.36
2022-10-11T13:31:16.106Z,25.64
2022-10-11T13:33:20.188Z,26.28
2022-10-11T13:34:23.323Z,26.46
2022-10-11T13:36:13.176Z,26.79
2022-10-11T13:37:13.201Z,26.93
2022-10-11T13:39:17.287Z,27.25
2022-10-11T13:40:17.301Z,27.53
2022-10-11T13:42:21.360Z,28.18
2022-10-11T13:43:21.390Z,28.27
2022-10-11T13:45:25.498Z,28.79
2022-10-11T13:46:25.488Z,28.87
2022-10-11T13:48:32.305Z,29.08
2022-10-11T13:49:29.573Z,28.82
2022-10-11T13:51:33.667Z,28.03
2022-10-11T13:52:33.673Z,27.50
2022-10-11T13:54:37.733Z,26.31
2022-10-11T13:55:37.768Z,25.85
2022-10-11T13:57:41.823Z,24.94
2022-10-11T13:58:41.857Z,24.48
2022-10-11T14:00:45.923Z,23.82
2022-10-11T14:01:45.985Z,23.54
2022-10-11T14:03:50.035Z,23.00
2022-10-11T14:04:50.044Z,22.81
2022-10-11T14:06:43.051Z,22.60
2022-10-11T14:07:43.056Z,22.59
2022-10-11T14:09:47.122Z,22.41
2022-10-11T14:10:47.229Z,22.38
2022-10-11T14:12:51.214Z,22.29
2022-10-11T14:13:51.245Z,22.08
2022-10-11T14:15:55.418Z,21.96
2022-10-11T14:16:55.332Z,21.99
2022-10-11T14:18:59.421Z,21.86
2022-10-11T14:20:04.017Z,21.94
2022-10-11T14:22:03.496Z,21.66
2022-10-11T14:23:03.526Z,21.61
2022-10-11T14:25:07.620Z,21.36
2022-10-11T14:26:08.161Z,21.31
2022-10-11T14:28:11.719Z,21.28
2022-10-11T14:29:11.722Z,21.13
2022-10-11T14:31:15.773Z,21.05
2022-10-11T14:32:15.805Z,21.12
2022-10-11T14:34:19.867Z,20.98